Time;durP1;ratioP1;P1;durP2;ratioP2;P2;SDS_P1;SDS_P2;PMS_P1;PMS_P2;Temp;Humidity;BMP_temperature;BMP_pressure;BME280_temperature;BME280_humidity;BME280_pressure;Samples;Min_cycle;Max_cycle;Signal;HPM_P1;HPM_P2
2023/09/18 00:04:12;;;;;;;0.57;0.57;;;;;;;21.91;61.36;96132.91;10414735;28;20532;-27
2023/09/18 00:09:13;;;;;;;0.75;0.70;;;;;;;21.91;61.73;96196.63;10412849;28;20047;-27
2023/09/18 00:14:14;;;;;;;2.85;1.38;;;;;;;21.95;61.77;96310.41;10412919;28;20045;-27
2023/09/18 00:19:14;;;;;;;0.63;0.60;;;;;;;21.92;61.51;96202.56;10409602;28;20108;-27
2023/09/18 00:24:15;;;;;;;0.85;0.60;;;;;;;21.90;61.34;96159.25;10406962;28;20320;-28
2023/09/18 00:29:15;;;;;;;0.47;0.47;;;;;;;21.91;61.29;96134.63;10409069;28;20052;-27
2023/09/18 00:34:15;;;;;;;1.17;1.00;;;;;;;21.88;61.22;96129.63;10413145;28;20044;-27
2023/09/18 00:39:16;;;;;;;0.60;0.60;;;;;;;21.88;61.07;96120.22;10409976;28;20296;-28
2023/09/18 00:44:16;;;;;;;1.20;0.80;;;;;;;21.89;61.27;96116.81;10409987;28;20192;-26
2023/09/18 00:49:18;;;;;;;1.00;0.60;;;;;;;21.89;61.33;96124.47;10412085;28;20041;-27
2023/09/18 00:54:19;;;;;;;1.55;0.60;;;;;;;21.90;61.31;96154.16;10408932;28;20032;-27
2023/09/18 00:59:21;;;;;;;0.65;0.50;;;;;;;21.90;61.13;96215.34;10411117;28;20029;-27
2023/09/18 01:04:21;;;;;;;1.42;0.80;;;;;;;21.88;61.26;96120.22;10412531;28;20025;-27
2023/09/18 01:09:22;;;;;;;0.50;0.50;;;;;;;21.89;61.42;96137.19;10405346;28;20039;-27
2023/09/18 01:14:28;;;;;;;2.33;0.70;;;;;;;21.90;61.16;96172.00;10401520;28;20029;-26
2023/09/18 01:19:42;;;;;;;1.13;0.82;;;;;;;21.86;61.18;96175.50;10410698;28;20036;-27
2023/09/18 01:24:44;;;;;;;1.02;0.65;;;;;;;21.86;61.25;96203.53;10408772;28;20037;-27
2023/09/18 01:29:48;;;;;;;0.70;0.70;;;;;;;21.89;61.37;96218.75;10409225;28;20403;-27
2023/09/18 01:34:51;;;;;;;0.75;0.70;;;;;;;21.89;61.18;96235.78;10409542;28;20128;-26
2023/09/18 01:39:53;;;;;;;0.40;0.40;;;;;;;21.90;61.32;96205.13;10407576;28;20029;-27
2023/09/18 01:44:54;;;;;;;0.52;0.52;;;;;;;21.87;61.24;96154.25;10403885;28;20478;-27
2023/09/18 01:49:55;;;;;;;0.50;0.50;;;;;;;21.87;60.99;96161.03;10410431;28;20033;-27
2023/09/18 01:54:55;;;;;;;0.60;0.57;;;;;;;21.87;61.21;96184.84;10406327;28;20033;-27
2023/09/18 01:59:55;;;;;;;0.63;0.60;;;;;;;21.87;61.25;96154.25;10406864;28;20029;-27
2023/09/18 02:04:57;;;;;;;0.90;0.60;;;;;;;21.87;61.14;96143.19;10406099;28;20384;-27
2023/09/18 02:09:59;;;;;;;0.85;0.50;;;;;;;21.88;61.23;96155.09;10408250;28;20113;-27
2023/09/18 02:15:04;;;;;;;0.80;0.53;;;;;;;21.89;61.14;96192.44;10400580;28;20039;-27
2023/09/18 02:20:11;;;;;;;1.10;0.60;;;;;;;21.88;61.14;96224.72;10408046;28;20276;-27
2023/09/18 02:25:11;;;;;;;0.88;0.65;;;;;;;21.86;61.12;96234.13;10407423;28;20207;-27
2023/09/18 02:30:12;;;;;;;0.43;0.37;;;;;;;21.87;61.15;96261.28;10405440;28;20029;-26
2023/09/18 02:35:12;;;;;;;0.75;0.50;;;;;;;21.88;61.07;96300.38;10406289;28;20560;-26
2023/09/18 02:40:13;;;;;;;0.93;0.50;;;;;;;21.88;61.23;96324.13;10406055;28;20488;-27
2023/09/18 02:45:13;;;;;;;0.50;0.50;;;;;;;21.87;60.99;96365.78;10397263;28;20033;-27
2023/09/18 02:50:14;;;;;;;1.13;0.50;;;;;;;21.87;60.99;96375.97;10406839;28;20455;-26
2023/09/18 02:55:14;;;;;;;0.63;0.40;;;;;;;21.88;61.24;96361.53;10402230;28;20036;-27
2023/09/18 03:00:15;;;;;;;0.45;0.45;;;;;;;21.87;61.32;96363.25;10404144;28;20033;-27
2023/09/18 03:05:16;;;;;;;0.88;0.47;;;;;;;21.88;61.60;96364.09;10403773;28;20444;-27
2023/09/18 03:10:18;;;;;;;0.60;0.60;;;;;;;21.90;61.50;96354.69;10405757;28;20117;-26
2023/09/18 03:15:19;;;;;;;0.75;0.40;;;;;;;21.84;61.32;96309.78;10395080;28;20129;-26
2023/09/18 03:20:23;;;;;;;1.23;0.88;;;;;;;21.87;61.14;96307.16;10406373;28;20108;-27
2023/09/18 03:25:24;;;;;;;0.50;0.43;;;;;;;21.85;61.15;96267.28;10402625;28;20037;-27
2023/09/18 03:30:25;;;;;;;0.47;0.43;;;;;;;21.85;60.97;96265.59;10402332;28;20030;-27
2023/09/18 03:35:29;;;;;;;1.77;0.40;;;;;;;21.86;61.06;96229.03;10399965;28;20407;-27
2023/09/18 03:40:29;;;;;;;0.47;0.47;;;;;;;21.86;61.01;96218.84;10405987;28;20028;-26
2023/09/18 03:45:29;;;;;;;0.47;0.43;;;;;;;21.83;61.05;96203.63;10400368;28;20029;-27
2023/09/18 03:50:30;;;;;;;1.10;0.50;;;;;;;21.85;60.94;96186.56;10402323;28;20041;-27
2023/09/18 03:55:31;;;;;;;0.30;0.30;;;;;;;21.84;61.07;96169.63;10355658;28;20041;-25
2023/09/18 04:00:32;;;;;;;0.60;0.40;;;;;;;21.84;60.88;96179.81;10354687;28;20442;-27
2023/09/18 04:05:32;;;;;;;3.40;0.55;;;;;;;21.84;60.92;96173.84;10349045;28;20045;-27
2023/09/18 04:10:33;;;;;;;0.60;0.40;;;;;;;21.83;61.11;96167.94;10356176;28;20048;-27
2023/09/18 04:15:37;;;;;;;0.88;0.57;;;;;;;21.84;61.02;96187.44;10401329;28;20037;-27
2023/09/18 04:20:37;;;;;;;1.25;0.47;;;;;;;21.85;61.00;96224.81;10406272;28;20037;-27
2023/09/18 04:25:38;;;;;;;0.52;0.45;;;;;;;21.84;60.94;96230.78;10399420;28;20079;-27
2023/09/18 04:30:38;;;;;;;0.82;0.82;;;;;;;21.84;60.93;96220.59;10407379;28;20049;-27
2023/09/18 04:35:40;;;;;;;0.55;0.35;;;;;;;21.81;61.06;96164.56;10417110;28;20034;-27
2023/09/18 04:40:41;;;;;;;0.60;0.50;;;;;;;21.81;61.08;96144.19;10406523;28;20108;-32
2023/09/18 04:45:42;;;;;;;0.63;0.50;;;;;;;21.84;61.05;96164.53;10407807;28;20144;-27
2023/09/18 04:50:43;;;;;;;1.15;0.50;;;;;;;21.84;61.00;96164.53;10411446;28;20463;-27
2023/09/18 04:55:49;;;;;;;4.65;1.35;;;;;;;21.88;61.68;96158.47;10408039;28;20034;-27
2023/09/18 05:00:57;;;;;;;0.95;0.50;;;;;;;21.86;61.13;96165.31;10404561;28;20112;-27
2023/09/18 05:05:57;;;;;;;2.60;0.85;;;;;;;21.85;61.34;96171.28;10409750;28;20037;-27
2023/09/18 05:10:58;;;;;;;1.30;0.70;;;;;;;21.85;61.18;96186.56;10410111;28;20442;-27
2023/09/18 05:16:00;;;;;;;1.10;0.50;;;;;;;21.85;61.19;96186.56;10407560;28;20418;-26
2023/09/18 05:21:01;;;;;;;2.25;0.50;;;;;;;21.84;61.30;96182.34;10407476;28;20442;-27
2023/09/18 05:26:03;;;;;;;0.77;0.40;;;;;;;21.84;60.95;96184.91;10408535;28;20021;-27
2023/09/18 05:31:03;;;;;;;13.00;1.70;;;;;;;21.83;66.46;96188.34;10407317;28;20104;-26
2023/09/18 05:36:04;;;;;;;2.97;0.63;;;;;;;21.80;62.23;96198.56;10409313;28;20112;-27
2023/09/18 05:41:05;;;;;;;5.30;0.93;;;;;;;21.83;61.70;96207.88;10410793;28;20859;-27
2023/09/18 05:46:05;;;;;;;1.55;0.60;;;;;;;21.84;61.38;96227.38;10407074;28;20110;-32
2023/09/18 05:51:05;;;;;;;2.53;0.68;;;;;;;21.84;61.40;96238.44;10408980;28;20522;-26
2023/09/18 05:56:06;;;;;;;3.10;0.70;;;;;;;21.85;61.39;96244.34;10409035;28;20037;-27
2023/09/18 06:01:07;;;;;;;3.97;0.90;;;;;;;21.86;61.72;96248.56;10405907;28;20163;-27
2023/09/18 06:06:08;;;;;;;2.35;0.50;;;;;;;21.85;61.23;96250.28;10404915;28;20293;-27
2023/09/18 06:11:08;;;;;;;0.85;0.57;;;;;;;21.85;61.36;96257.09;10407427;28;20396;-27
2023/09/18 06:16:09;;;;;;;1.23;0.60;;;;;;;21.84;61.31;96256.25;10404810;28;20033;-27
2023/09/18 06:21:09;;;;;;;1.10;0.80;;;;;;;21.83;61.30;96274.97;10409473;28;20033;-26
2023/09/18 06:26:10;;;;;;;1.03;0.70;;;;;;;21.83;61.17;96274.13;10403099;28;20025;-28
2023/09/18 06:31:11;;;;;;;2.17;0.50;;;;;;;21.84;61.15;96286.84;10404303;28;20090;-27
2023/09/18 06:36:11;;;;;;;0.70;0.45;;;;;;;21.83;61.25;96299.63;10406503;28;20446;-27
2023/09/18 06:41:12;;;;;;;1.83;0.50;;;;;;;21.84;61.09;96301.28;10406336;28;20345;-27
2023/09/18 06:46:12;;;;;;;2.95;0.65;;;;;;;21.83;61.11;96295.38;10403015;28;20033;-27
2023/09/18 06:51:12;;;;;;;4.50;0.83;;;;;;;21.81;61.14;96283.53;10408395;28;20033;-27
2023/09/18 06:56:13;;;;;;;0.67;0.40;;;;;;;21.83;61.11;96290.28;10406623;28;20280;-27
2023/09/18 07:01:15;;;;;;;0.47;0.33;;;;;;;21.82;61.07;96306.41;10403791;28;20080;-28
2023/09/18 07:06:18;;;;;;;1.77;0.80;;;;;;;21.82;61.06;96303.84;10402197;28;20190;-27
2023/09/18 07:11:18;;;;;;;0.50;0.40;;;;;;;21.83;61.08;96308.13;10407378;28;20057;-27
2023/09/18 07:16:19;;;;;;;1.13;0.60;;;;;;;21.83;61.04;96320.00;10403035;28;20041;-27
2023/09/18 07:21:19;;;;;;;2.28;0.43;;;;;;;21.79;60.94;96314.13;10405104;28;20041;-27
2023/09/18 07:26:19;;;;;;;2.37;0.40;;;;;;;21.82;61.17;96303.84;10407892;28;20060;-27
2023/09/18 07:31:20;;;;;;;0.93;0.70;;;;;;;21.81;61.17;96286.88;10404040;28;20029;-27
2023/09/18 07:36:20;;;;;;;2.20;0.47;;;;;;;21.76;61.16;96272.56;10407969;28;20025;-27
2023/09/18 07:41:22;;;;;;;0.73;0.50;;;;;;;21.83;61.13;96299.63;10404779;28;20075;-27
2023/09/18 07:46:22;;;;;;;0.30;0.30;;;;;;;21.82;61.14;96293.66;10402663;28;20065;-27
2023/09/18 07:51:23;;;;;;;0.60;0.47;;;;;;;21.81;60.99;96276.69;10405011;28;20061;-27
2023/09/18 07:56:23;;;;;;;0.40;0.40;;;;;;;21.79;61.01;96269.94;10408820;28;20446;-27
2023/09/18 08:01:24;;;;;;;1.70;0.30;;;;;;;21.80;61.12;96285.22;10407666;28;20042;-27
2023/09/18 08:06:26;;;;;;;0.45;0.40;;;;;;;21.81;61.03;96291.97;10413555;28;20298;-27
2023/09/18 08:11:26;;;;;;;1.15;0.40;;;;;;;21.81;61.11;96293.72;10414010;28;20025;-27
2023/09/18 08:16:27;;;;;;;0.93;0.50;;;;;;;21.82;60.95;96303.84;10409388;28;20442;-27
2023/09/18 08:21:31;;;;;;;0.22;0.22;;;;;;;21.80;61.05;96280.13;10413857;28;20363;-28
2023/09/18 08:26:32;;;;;;;0.40;0.40;;;;;;;21.81;60.75;96245.28;10412110;28;20037;-27
2023/09/18 08:31:32;;;;;;;0.43;0.40;;;;;;;21.81;60.91;96255.50;10410675;28;20033;-26
2023/09/18 08:36:32;;;;;;;0.63;0.30;;;;;;;21.81;60.82;96274.16;10413514;28;20260;-26
2023/09/18 08:41:37;;;;;;;0.55;0.50;;;;;;;21.82;60.83;96306.41;10409987;28;20296;-27
2023/09/18 08:46:38;;;;;;;1.10;0.40;;;;;;;21.82;60.96;96357.38;10408331;28;20041;-26
2023/09/18 08:51:40;;;;;;;0.20;0.20;;;;;;;21.79;60.83;96395.66;10410636;28;20029;-27
2023/09/18 08:56:41;;;;;;;0.40;0.40;;;;;;;21.81;60.88;96401.56;10412263;28;20033;-27
2023/09/18 09:01:41;;;;;;;0.63;0.63;;;;;;;21.79;60.90;96367.63;10408228;28;20037;-27
2023/09/18 09:06:42;;;;;;;0.30;0.30;;;;;;;21.79;60.77;96308.16;10411095;28;20043;-27
2023/09/18 09:11:49;;;;;;;0.38;0.30;;;;;;;21.75;60.95;96220.78;10411421;28;20065;-27
2023/09/18 09:16:51;;;;;;;0.52;0.30;;;;;;;21.80;60.75;96239.34;10405432;28;20094;-27
2023/09/18 09:21:53;;;;;;;0.50;0.50;;;;;;;21.82;60.73;96257.97;10409908;28;20116;-27
2023/09/18 09:26:58;;;;;;;0.50;0.40;;;;;;;21.81;60.89;96261.41;10411792;28;20094;-27
2023/09/18 09:32:15;;;;;;;0.93;0.73;;;;;;;21.81;60.85;96245.28;10407174;28;20041;-26
2023/09/18 09:37:16;;;;;;;0.40;0.30;;;;;;;21.80;61.08;96275.03;10410492;28;20057;-27
2023/09/18 09:42:27;;;;;;;0.32;0.32;;;;;;;21.80;61.08;96269.09;10410528;28;20053;-27
2023/09/18 09:47:30;;;;;;;0.57;0.43;;;;;;;21.80;60.90;96281.84;10406343;28;20068;-27
2023/09/18 09:52:33;;;;;;;0.45;0.30;;;;;;;21.80;60.83;96297.13;10410378;28;20128;-27
2023/09/18 09:57:47;;;;;;;0.20;0.20;;;;;;;21.75;60.90;96266.66;10408897;28;20454;-27
2023/09/18 10:02:49;;;;;;;0.25;0.25;;;;;;;21.79;60.93;96286.09;10408564;28;20040;-28
2023/09/18 10:07:51;;;;;;;0.43;0.30;;;;;;;21.80;60.80;96279.28;10406488;28;20069;-27
2023/09/18 10:12:55;;;;;;;0.43;0.40;;;;;;;21.79;60.90;96287.78;10409330;28;20091;-27
2023/09/18 10:17:59;;;;;;;0.80;0.28;;;;;;;21.80;60.78;96279.28;10405659;28;20038;-27
2023/09/18 10:23:02;;;;;;;1.50;0.30;;;;;;;21.81;60.84;96240.19;10406198;28;20563;-27
2023/09/18 10:28:03;;;;;;;0.55;0.40;;;;;;;21.80;60.66;96239.34;10407305;28;20053;-28
2023/09/18 10:33:07;;;;;;;0.68;0.50;;;;;;;21.81;61.37;96246.13;10407649;28;20037;-27
2023/09/18 10:38:09;;;;;;;0.85;0.43;;;;;;;21.80;60.95;96257.19;10404380;28;20091;-28
2023/09/18 10:43:11;;;;;;;3.53;0.50;;;;;;;21.84;61.83;96281.75;10402691;28;20083;-27
2023/09/18 10:48:13;;;;;;;0.40;0.40;;;;;;;21.81;60.84;96274.16;10406787;28;20107;-27
2023/09/18 10:53:15;;;;;;;1.60;0.32;;;;;;;21.79;60.96;96272.50;10406441;28;20053;-26
2023/09/18 10:58:24;;;;;;;2.30;0.30;;;;;;;21.81;60.85;96265.69;10404855;28;20033;-27
2023/09/18 11:03:24;;;;;;;9.63;1.00;;;;;;;21.80;60.90;96254.63;10403413;28;20029;-27
2023/09/18 11:08:26;;;;;;;0.75;0.45;;;;;;;21.80;60.93;96262.28;10402602;28;20035;-27
2023/09/18 11:13:53;;;;;;;0.65;0.50;;;;;;;21.79;60.69;96254.66;10402826;28;20041;-27
2023/09/18 11:19:07;;;;;;;0.22;0.20;;;;;;;21.79;61.48;96252.97;10407831;28;20117;-27
2023/09/18 11:24:15;;;;;;;0.40;0.40;;;;;;;21.80;60.70;96258.91;10404782;28;20033;-26
2023/09/18 11:29:21;;;;;;;0.77;0.60;;;;;;;21.83;61.02;96274.97;10406329;28;20040;-27
2023/09/18 11:34:26;;;;;;;3.70;0.88;;;;;;;21.83;61.28;96285.19;10413438;28;20483;-27
2023/09/18 11:39:40;;;;;;;2.80;0.40;;;;;;;21.78;60.86;96269.13;10406927;28;20038;-27
2023/09/18 11:44:41;;;;;;;1.98;0.50;;;;;;;21.82;60.87;96275.81;10414318;28;20044;-27
2023/09/18 11:49:48;;;;;;;1.67;0.28;;;;;;;21.81;60.89;96256.31;10415215;28;20033;-26
2023/09/18 11:54:50;;;;;;;1.90;0.40;;;;;;;21.81;60.95;96261.41;10412258;28;20396;-27
2023/09/18 11:59:52;;;;;;;0.47;0.28;;;;;;;21.80;60.90;96249.53;10413062;28;20049;-26
2023/09/18 12:04:53;;;;;;;1.02;0.45;;;;;;;21.78;61.36;96246.19;10414859;28;20064;-27
2023/09/18 12:09:54;;;;;;;1.10;0.45;;;;;;;21.82;60.94;96252.88;10410640;28;20044;-27
2023/09/18 12:14:54;;;;;;;3.13;0.77;;;;;;;21.82;61.17;96247.78;10412498;28;20415;-27
2023/09/18 12:19:55;;;;;;;2.88;0.50;;;;;;;21.82;60.87;96242.69;10413581;28;20029;-26
2023/09/18 12:25:13;;;;;;;1.75;0.50;;;;;;;21.81;60.88;96243.56;10411771;28;20042;-26
2023/09/18 12:30:20;;;;;;;3.53;0.57;;;;;;;21.81;60.96;96246.13;10411779;28;20041;-27
2023/09/18 12:35:21;;;;;;;3.53;0.50;;;;;;;21.80;61.14;96229.16;10413810;28;20664;-27
2023/09/18 12:40:26;;;;;;;2.00;0.52;;;;;;;21.80;60.81;96229.16;10412216;28;20117;-27
2023/09/18 12:45:29;;;;;;;2.67;0.60;;;;;;;21.83;61.17;96249.50;10404655;28;20120;-27
2023/09/18 12:50:29;;;;;;;1.30;0.85;;;;;;;21.90;61.28;96250.19;10413348;28;20042;-27
2023/09/18 12:55:30;;;;;;;2.23;0.60;;;;;;;21.94;60.83;96247.56;10411020;28;20476;-27
2023/09/18 13:00:31;;;;;;;1.05;0.55;;;;;;;21.94;60.65;96237.34;10410422;28;20307;-26
2023/09/18 13:05:35;;;;;;;2.63;0.65;;;;;;;21.97;60.71;96232.19;10411591;28;20060;-27
2023/09/18 13:10:45;;;;;;;1.00;0.60;;;;;;;21.98;60.63;96226.22;10411220;28;20103;-28
2023/09/18 13:15:47;;;;;;;2.08;0.70;;;;;;;21.96;60.91;96217.75;10407237;28;20127;-28
2023/09/18 13:20:47;;;;;;;1.85;0.85;;;;;;;21.99;60.80;96225.34;10410186;28;20523;-27
2023/09/18 13:25:47;;;;;;;1.67;0.67;;;;;;;21.99;60.77;96209.22;10408219;28;20041;-26
2023/09/18 13:30:48;;;;;;;3.37;0.70;;;;;;;22.00;60.82;96210.88;10409656;28;20041;-27
2023/09/18 13:35:49;;;;;;;1.10;0.70;;;;;;;21.97;60.74;96201.59;10411078;28;20083;-26
2023/09/18 13:40:49;;;;;;;1.50;0.50;;;;;;;21.94;60.86;96186.38;10407092;28;20032;-26
2023/09/18 13:45:51;;;;;;;0.60;0.32;;;;;;;21.99;60.77;96215.13;10404449;28;20033;-27
2023/09/18 13:50:52;;;;;;;1.50;0.52;;;;;;;21.99;60.92;96210.03;10408323;28;20034;-27
2023/09/18 13:55:52;;;;;;;1.23;0.50;;;;;;;21.98;61.25;96198.16;10408895;28;20036;-27
2023/09/18 14:00:53;;;;;;;1.60;0.60;;;;;;;22.01;61.19;96197.28;10407192;28;20310;-26
2023/09/18 14:05:53;;;;;;;0.93;0.60;;;;;;;21.99;60.83;96202.38;10409850;28;20034;-27
2023/09/18 14:10:53;;;;;;;3.00;0.70;;;;;;;22.01;61.11;96198.13;10408602;28;20040;-28
2023/09/18 14:15:55;;;;;;;1.67;0.57;;;;;;;21.99;61.07;96182.00;10406294;28;20033;-27
2023/09/18 14:20:56;;;;;;;1.23;0.65;;;;;;;21.98;60.91;96182.06;10409685;28;20088;-28
2023/09/18 14:25:57;;;;;;;1.63;0.50;;;;;;;21.98;60.94;96172.69;10406886;28;20476;-26
2023/09/18 14:30:57;;;;;;;3.15;0.60;;;;;;;21.99;60.94;96166.69;10405993;28;20034;-27
2023/09/18 14:35:57;;;;;;;1.93;0.60;;;;;;;21.98;60.95;96159.13;10407447;28;20030;-27
2023/09/18 14:41:02;;;;;;;1.67;0.60;;;;;;;21.98;60.93;96146.38;10406412;28;20025;-26
2023/09/18 14:46:04;;;;;;;1.20;0.70;;;;;;;21.96;60.91;96148.09;10404600;28;20044;-27
2023/09/18 14:51:06;;;;;;;0.68;0.50;;;;;;;21.96;60.99;96151.50;10408272;28;20107;-27
2023/09/18 14:56:07;;;;;;;4.45;0.90;;;;;;;21.98;60.43;96147.19;10405751;28;20029;-27
2023/09/18 15:01:14;;;;;;;0.70;0.60;;;;;;;21.97;60.85;96134.50;10404339;28;20080;-27
2023/09/18 15:06:15;;;;;;;1.13;0.77;;;;;;;21.96;60.96;96118.34;10404577;28;20033;-27
2023/09/18 15:11:17;;;;;;;3.03;0.60;;;;;;;21.97;60.86;96114.94;10407667;28;20029;-27
2023/09/18 15:16:17;;;;;;;1.75;0.57;;;;;;;21.96;60.83;96118.34;10403505;28;20028;-25
2023/09/18 15:21:18;;;;;;;5.13;0.90;;;;;;;21.96;60.88;96095.41;10408509;28;20487;-27
2023/09/18 15:26:19;;;;;;;3.92;1.30;;;;;;;21.96;61.06;96100.50;10405853;28;20033;-28
2023/09/18 15:31:19;;;;;;;3.17;0.70;;;;;;;21.95;60.86;96086.09;10404748;28;20033;-28
2023/09/18 15:36:20;;;;;;;1.13;0.70;;;;;;;21.96;60.85;96087.75;10402055;28;20033;-29
2023/09/18 15:41:21;;;;;;;1.23;0.90;;;;;;;21.96;60.87;96071.63;10407531;28;20025;-27
2023/09/18 15:46:21;;;;;;;3.50;1.10;;;;;;;21.96;60.82;96072.47;10403309;28;20025;-27
2023/09/18 15:51:21;;;;;;;1.67;0.90;;;;;;;21.97;60.89;96068.22;10405462;28;20035;-27
2023/09/18 15:56:22;;;;;;;1.90;0.97;;;;;;;21.96;60.97;96072.47;10406837;28;20083;-27
2023/09/18 16:01:23;;;;;;;1.85;0.70;;;;;;;21.96;60.96;96087.75;10402472;28;20035;-27
2023/09/18 16:06:25;;;;;;;1.83;0.90;;;;;;;21.96;61.19;96085.22;10401857;28;20041;-27
2023/09/18 16:11:26;;;;;;;1.92;0.80;;;;;;;21.96;61.02;96081.81;10399050;28;20029;-27
2023/09/18 16:16:26;;;;;;;9.03;2.07;;;;;;;21.98;61.75;96093.66;10398264;28;20411;-27
2023/09/18 16:21:26;;;;;;;3.13;0.90;;;;;;;21.96;60.98;96097.09;10410392;28;20030;-27
2023/09/18 16:26:27;;;;;;;3.00;0.80;;;;;;;21.91;61.05;96089.56;10406547;28;20048;-27
2023/09/18 16:31:29;;;;;;;5.13;0.83;;;;;;;21.94;61.08;96099.72;10409915;28;20040;-27
2023/09/18 16:36:32;;;;;;;2.90;1.23;;;;;;;21.95;60.65;96093.75;10413465;28;20280;-26
2023/09/18 16:41:32;;;;;;;1.42;0.80;;;;;;;21.94;60.84;96089.53;10406130;28;20039;-27
2023/09/18 16:46:33;;;;;;;1.97;1.07;;;;;;;21.89;61.04;96077.75;10408588;28;20458;-27
2023/09/18 16:51:34;;;;;;;1.90;0.88;;;;;;;21.96;60.91;96086.91;10412815;28;20029;-27
2023/09/18 16:56:35;;;;;;;2.70;1.20;;;;;;;21.95;61.55;96106.47;10407297;28;20033;-27
2023/09/18 17:01:35;;;;;;;7.13;1.02;;;;;;;21.96;61.30;96105.59;10408070;28;20495;-27
2023/09/18 17:06:35;;;;;;;1.13;0.67;;;;;;;21.95;61.09;96119.22;10411289;28;20546;-26
2023/09/18 17:11:36;;;;;;;1.37;0.73;;;;;;;21.94;60.84;96109.91;10410135;28;20513;-27
2023/09/18 17:16:36;;;;;;;2.03;0.60;;;;;;;21.95;61.05;96124.31;10409445;28;20296;-28
2023/09/18 17:21:36;;;;;;;3.27;1.00;;;;;;;21.93;61.47;96117.59;10409325;28;20096;-27
2023/09/18 17:26:37;;;;;;;36.87;2.83;;;;;;;21.96;61.48;96120.91;10402322;28;20805;-28
2023/09/18 17:31:37;;;;;;;13.87;2.30;;;;;;;21.97;62.08;96135.31;10406362;28;20037;-27
2023/09/18 17:36:37;;;;;;;15.57;1.73;;;;;;;21.94;62.10;96135.41;10409426;28;20045;-27
2023/09/18 17:41:38;;;;;;;8.97;1.20;;;;;;;21.98;61.48;96134.44;10410951;28;20315;-27
2023/09/18 17:46:39;;;;;;;8.50;1.40;;;;;;;21.98;61.24;96131.88;10408783;28;20033;-27
2023/09/18 17:51:39;;;;;;;8.00;1.25;;;;;;;22.00;60.98;96135.28;10406774;28;20538;-27
2023/09/18 17:56:40;;;;;;;6.37;0.77;;;;;;;22.01;61.11;96126.75;10406797;28;20091;-26
2023/09/18 18:01:40;;;;;;;5.97;1.30;;;;;;;22.04;60.94;96115.63;10406199;28;20038;-27
2023/09/18 18:06:43;;;;;;;4.53;1.10;;;;;;;22.07;60.73;96118.94;10407280;28;20041;-27
2023/09/18 18:11:44;;;;;;;1.85;0.82;;;;;;;22.09;60.53;96129.97;10409164;28;20033;-27
2023/09/18 18:16:44;;;;;;;5.63;1.33;;;;;;;22.09;60.73;96139.31;10405702;28;20415;-27
2023/09/18 18:21:44;;;;;;;2.73;1.03;;;;;;;22.06;60.63;96137.66;10407387;28;20049;-27
2023/09/18 18:26:45;;;;;;;4.80;1.57;;;;;;;22.09;60.74;96144.41;10408680;28;20048;-26
2023/09/18 18:31:46;;;;;;;2.97;1.00;;;;;;;22.10;60.86;96154.56;10401554;28;20044;-26
2023/09/18 18:36:48;;;;;;;2.08;0.98;;;;;;;22.09;60.71;96175.84;10401913;28;20029;-27
2023/09/18 18:41:48;;;;;;;5.05;1.67;;;;;;;22.10;62.79;96287.16;10401494;28;20073;-27
2023/09/18 18:46:49;;;;;;;3.53;1.40;;;;;;;22.05;61.57;96258.34;10396654;28;20037;-26
2023/09/18 18:51:49;;;;;;;3.63;1.00;;;;;;;22.07;60.92;96246.41;10388311;28;20042;-27
2023/09/18 18:56:49;;;;;;;4.33;0.97;;;;;;;22.09;60.91;96305.88;10394465;28;20198;-26
2023/09/18 19:01:50;;;;;;;5.47;1.20;;;;;;;22.08;61.01;96322.00;10395876;28;20112;-27
2023/09/18 19:06:50;;;;;;;4.53;1.10;;;;;;;22.06;61.85;96313.56;10397130;28;20033;-27
2023/09/18 19:11:50;;;;;;;3.80;0.93;;;;;;;22.08;60.94;96296.50;10398932;28;20041;-28
2023/09/18 19:16:51;;;;;;;1.73;0.90;;;;;;;22.08;60.89;96304.16;10392890;28;20041;-26
2023/09/18 19:21:51;;;;;;;2.03;0.70;;;;;;;22.08;60.84;96298.25;10401248;28;20038;-27
2023/09/18 19:26:54;;;;;;;2.07;0.80;;;;;;;22.07;60.94;96299.94;10403477;28;20048;-27
2023/09/18 19:31:54;;;;;;;1.52;0.80;;;;;;;22.05;61.06;96294.03;10394855;28;20045;-28
2023/09/18 19:36:55;;;;;;;3.67;1.10;;;;;;;22.05;60.93;96295.78;10398464;28;20442;-27
2023/09/18 19:42:02;;;;;;;1.83;0.90;;;;;;;22.04;60.88;96283.88;10391764;28;20040;-27
2023/09/18 19:47:03;;;;;;;2.50;1.23;;;;;;;22.03;60.92;96282.19;10390249;28;20041;-27
2023/09/18 19:52:05;;;;;;;1.13;0.70;;;;;;;22.03;60.85;96277.09;10391684;28;20037;-26
2023/09/18 19:57:06;;;;;;;1.00;0.70;;;;;;;22.01;60.92;96282.25;10405329;28;20029;-27
2023/09/18 20:02:08;;;;;;;2.30;0.50;;;;;;;22.00;60.83;96282.28;10394120;28;20502;-27
2023/09/18 20:07:09;;;;;;;1.67;0.70;;;;;;;21.99;60.72;96278.88;10393276;28;20068;-27
2023/09/18 20:12:09;;;;;;;2.05;0.80;;;;;;;21.99;60.84;96285.69;10393167;28;20033;-26
2023/09/18 20:17:10;;;;;;;1.77;0.70;;;;;;;21.99;60.79;96301.00;10397390;28;20047;-27
2023/09/18 20:22:10;;;;;;;1.55;0.50;;;;;;;21.96;60.75;96281.50;10400269;28;20116;-27
2023/09/18 20:27:12;;;;;;;1.10;0.60;;;;;;;21.97;60.93;96285.72;10410582;28;20042;-28
2023/09/18 20:32:13;;;;;;;1.58;0.60;;;;;;;21.96;60.81;96273.84;10401435;28;20041;-28
2023/09/18 20:37:13;;;;;;;1.60;0.70;;;;;;;21.98;61.14;96284.84;10399652;28;20037;-27
2023/09/18 20:42:14;;;;;;;1.83;0.60;;;;;;;22.00;60.82;96293.31;10404396;28;20036;-27
2023/09/18 20:47:14;;;;;;;2.17;0.70;;;;;;;21.91;61.63;96298.56;10407656;28;20778;-27
2023/09/18 20:52:17;;;;;;;1.37;0.50;;;;;;;21.95;61.17;96302.75;10406959;28;20538;-26
2023/09/18 20:57:18;;;;;;;2.38;0.85;;;;;;;21.97;61.26;96295.91;10405600;28;20034;-27
2023/09/18 21:02:18;;;;;;;6.18;0.80;;;;;;;21.97;61.29;96288.25;10406941;28;20411;-27
2023/09/18 21:07:19;;;;;;;2.10;0.73;;;;;;;21.96;60.99;96306.97;10408072;28;20120;-28
2023/09/18 21:12:22;;;;;;;0.85;0.57;;;;;;;21.96;60.97;96311.22;10409238;28;20079;-27
2023/09/18 21:17:23;;;;;;;2.15;0.70;;;;;;;21.93;60.93;96304.50;10407230;28;20472;-27
2023/09/18 21:22:23;;;;;;;2.23;0.60;;;;;;;21.92;60.95;96305.38;10406663;28;20465;-27
2023/09/18 21:27:24;;;;;;;2.20;0.67;;;;;;;21.92;61.01;96315.56;10404359;28;20065;-27
2023/09/18 21:32:25;;;;;;;0.85;0.43;;;;;;;21.94;60.99;96407.28;10404180;28;20068;-26
2023/09/18 21:37:25;;;;;;;1.03;0.40;;;;;;;21.93;60.92;96410.72;10404797;28;20087;-26
2023/09/18 21:42:25;;;;;;;1.10;0.50;;;;;;;21.92;61.05;96406.47;10410988;28;20370;-27
2023/09/18 21:47:26;;;;;;;1.83;0.67;;;;;;;21.92;60.97;96416.69;10402626;28;20029;-27
2023/09/18 21:52:26;;;;;;;0.97;0.70;;;;;;;21.92;60.88;96422.63;10409107;28;20107;-26
2023/09/18 21:57:27;;;;;;;0.68;0.40;;;;;;;21.91;60.96;96426.03;10411103;28;20056;-27
2023/09/18 22:02:27;;;;;;;0.50;0.40;;;;;;;21.89;60.89;96420.13;10405308;28;20262;-27
2023/09/18 22:07:28;;;;;;;1.00;0.60;;;;;;;21.90;60.80;96419.25;10408837;28;20388;-27
2023/09/18 22:12:28;;;;;;;1.45;0.40;;;;;;;21.90;60.89;96416.69;10409416;28;20033;-27
2023/09/18 22:17:28;;;;;;;0.63;0.53;;;;;;;21.89;60.70;96421.84;10404776;28;20040;-27
2023/09/18 22:22:30;;;;;;;1.07;0.53;;;;;;;21.88;60.76;96426.09;10409983;28;20465;-27
2023/09/18 22:27:31;;;;;;;0.85;0.40;;;;;;;21.89;60.74;96432.88;10403994;28;20076;-27
2023/09/18 22:32:36;;;;;;;0.80;0.45;;;;;;;21.89;60.82;96437.13;10405071;28;20152;-27
2023/09/18 22:37:37;;;;;;;0.70;0.30;;;;;;;21.88;60.74;96426.09;10406525;28;20574;-27
2023/09/18 22:43:17;;;;;;;0.45;0.40;;;;;;;21.88;60.72;96413.34;10408584;28;20048;-27
2023/09/18 22:48:55;;;;;;;0.98;0.40;;;;;;;21.87;60.85;96419.31;10407505;28;20128;-27
2023/09/18 22:53:56;;;;;;;0.90;0.45;;;;;;;21.88;60.72;96426.09;10402324;28;20124;-27
2023/09/18 22:58:56;;;;;;;0.90;0.40;;;;;;;21.88;60.69;96436.28;10403469;28;20033;-27
2023/09/18 23:03:58;;;;;;;0.98;0.50;;;;;;;21.89;60.83;96447.34;10407867;28;20515;-27
2023/09/18 23:08:59;;;;;;;1.40;0.40;;;;;;;21.88;60.62;96446.47;10405902;28;20167;-27
2023/09/18 23:14:03;;;;;;;0.80;0.60;;;;;;;21.87;60.85;96449.91;10397107;28;20089;-27
2023/09/18 23:19:04;;;;;;;0.75;0.40;;;;;;;21.86;60.71;96447.38;10404498;28;20037;-27
2023/09/18 23:24:05;;;;;;;0.43;0.38;;;;;;;21.87;60.80;96437.16;10405775;28;20057;-26